Taipak, Kazakhstan
Current Conditions -  °F | °C
As of 2:30 AM on Monday 22 Dec 2014 (Local Time) from UATG Reporting Station
Haze Haze  
Wind Chill: 28°   Ceiling: 1800
Heat Index: 36°   Visibility: 3mi
Dew Point: 36°   Wind: 11mph
Humidity: 100%   Direction: 170°S
Pressure: 30"   Gusts: NA
Location:  49.05°N, 51.87°E
Report Text: UATG 212230Z 17005MPS 5000 BR OVC018 02/02 Q1016 R14/19//65NOSIG RMK QFE764/1019
Loading
Personal Weather Stations






























Interactive Weather Map New forecast layout! Learn more

10-Day Weather Forecast

Advertisements
Track Severe Weather on mobile